Aérodrome :
LOGIN :

S'inscrire | Disclaimer

   EN    FR    IT 

 










Légende :    VFR   VFR Marginal   IFR   IFR Intensif   IFR Très Intensif
Visi : 
Plafond : 
>= 8 km
>= 3000ft
5 à 8 km
1000 à 3000 ft
1500m à 5 km
500 à 1000 ft
800 à 1500m
200 à 500 ft
< 800m
< 200 ft
Symboles :   Orages  Brouillard  Fortes neiges  Fortes précipitations  Vent > 20 kt
SIGMETs :   Divers  Orages  Givrage  Turbulence  Onde Orograph.  Cendres Volcan.






- Altitude de l'aérodrome : 23 ft
- Code IATA : XFW


EDHI - Hamburg Finkenwerder

DERNIER METAR :
  • 270620Z 30004KT CAVOK 13/11 Q1033

METARs EXPIRÉS :
  • 270550Z 25003KT 210V300 CAVOK 12/10 Q1033
  • 270520Z VRB02KT CAVOK 11/09 Q1033
  • 270450Z 24003KT CAVOK 10/09 Q1033
  • 270420Z VRB02KT CAVOK 09/08 Q1033
  • 270350Z AUTO VRB02KT 8000 // NCD 08/07 Q1033

TAF TAF EDHI
Valide du 27 à 06h jusqu'au 27 à 15h UTC


270500Z 2706/2715 28004KT CAVOK
BECMG 2710/2712 32010KT
TEMPO 2713/2715 35015G25KT



MET'MAP, la Météo Aéronautique d'un coup d'oeil ! - Copyright ORBIFLY Décembre 2007 - Disclaimer

ORBIFLY MET'MAP TEAM :

Programmation & Développement : Alexandra Zaïnal
Sur une idée originale de : Baudouin d'Aumeries
Assistance à la programmation : Marc-Olivier Méhu
Soutien technique & logistique : Manuel Goepfert

Contact : metmap@orbifly.com




SOURCES & CREDITS :

   NOAA